createdAt,value
2023-03-24T00:01:08.719Z,99359.44
2023-03-24T00:03:38.121Z,99368.63
2023-03-24T00:06:08.732Z,99364.16
2023-03-24T00:08:38.228Z,99361.34
2023-03-24T00:11:11.641Z,99340.56
2023-03-24T00:13:40.242Z,99360.19
2023-03-24T00:16:10.497Z,99358.19
2023-03-24T00:18:39.356Z,99358.19
2023-03-24T00:21:09.169Z,99349.59
2023-03-24T00:23:37.127Z,99344.75
2023-03-24T00:26:08.955Z,99340.28
2023-03-24T00:28:39.008Z,99333.81
2023-03-24T00:31:08.744Z,99324.41
2023-03-24T00:33:37.719Z,99325.22
2023-03-24T00:36:08.225Z,99312.97
2023-03-24T00:38:36.418Z,99309.97
2023-03-24T00:41:04.290Z,99299.22
2023-03-24T00:43:33.781Z,99302.69
2023-03-24T00:46:04.030Z,99310.25
2023-03-24T00:48:38.067Z,99307.97
2023-03-24T00:51:10.920Z,99302.50
2023-03-24T00:53:43.745Z,99298.38
2023-03-24T00:56:15.653Z,99299.22
2023-03-24T00:58:45.023Z,99293.25
2023-03-24T01:01:13.018Z,99291.25
2023-03-24T01:03:50.721Z,99262.97
2023-03-24T01:06:22.296Z,99234.97
2023-03-24T01:08:53.770Z,99272.34
2023-03-24T01:11:24.322Z,99274.16
2023-03-24T01:13:55.429Z,99179.75
2023-03-24T01:16:25.884Z,99256.47
2023-03-24T01:18:54.075Z,99275.81
2023-03-24T01:21:22.108Z,99281.09
2023-03-24T01:23:50.171Z,99257.63
2023-03-24T01:26:18.147Z,99255.50
2023-03-24T01:28:46.106Z,99283.41
2023-03-24T01:31:15.662Z,99196.66
2023-03-24T01:33:43.739Z,99267.84
2023-03-24T01:36:12.165Z,99236.19
2023-03-24T01:38:40.126Z,99214.44
2023-03-24T01:41:08.803Z,99252.34
2023-03-24T01:43:37.430Z,99247.47
2023-03-24T01:46:21.817Z,99239.72
2023-03-24T01:48:55.284Z,99239.34
2023-03-24T01:51:26.376Z,99233.41
2023-03-24T01:53:58.974Z,99229.94
2023-03-24T01:56:28.243Z,99202.41
2023-03-24T01:58:59.783Z,99213.59
2023-03-24T02:01:45.047Z,99203.81
2023-03-24T02:04:48.560Z,99200.63
2023-03-24T02:07:24.637Z,99185.53
2023-03-24T02:09:52.628Z,99175.41
2023-03-24T02:12:20.710Z,99174.59
2023-03-24T02:14:49.531Z,99117.09
2023-03-24T02:17:45.187Z,99157.50
2023-03-24T02:20:47.877Z,99165.09
2023-03-24T02:24:03.504Z,99149.03
2023-03-24T02:26:54.465Z,99145.38
2023-03-24T02:30:04.202Z,99140.91
2023-03-24T02:33:08.857Z,99103.59
2023-03-24T02:36:09.941Z,99125.25
2023-03-24T02:39:02.053Z,99132.03
2023-03-24T02:41:35.229Z,99143.91
2023-03-24T02:44:11.683Z,99137.44
2023-03-24T02:46:47.265Z,99123.59
2023-03-24T02:49:27.374Z,99136.44
2023-03-24T02:52:01.400Z,99108.28
2023-03-24T02:54:39.077Z,99148.28
2023-03-24T02:57:13.498Z,99113.81
2023-03-24T03:00:26.208Z,99132.13
2023-03-24T03:03:20.727Z,99122.97
2023-03-24T03:05:54.053Z,99115.66
2023-03-24T03:08:24.808Z,99134.13
2023-03-24T03:10:54.531Z,99142.09
2023-03-24T03:13:27.728Z,99132.13
2023-03-24T03:15:59.263Z,99133.78
2023-03-24T03:18:33.061Z,99128.66
2023-03-24T03:21:06.266Z,99140.91
2023-03-24T03:23:39.263Z,99136.44
2023-03-24T03:26:13.463Z,99132.13
2023-03-24T03:28:50.044Z,99119.78
2023-03-24T03:31:23.794Z,99133.78
2023-03-24T03:33:57.130Z,99121.13
2023-03-24T03:36:30.394Z,99116.66
2023-03-24T03:39:04.961Z,99122.97
2023-03-24T03:41:33.021Z,99118.47
2023-03-24T03:44:02.542Z,99113.47
2023-03-24T03:46:30.709Z,99118.75
2023-03-24T03:48:59.403Z,99115.75
2023-03-24T03:51:27.384Z,99113.91
2023-03-24T03:54:01.128Z,99104.88
2023-03-24T03:56:33.703Z,99120.50
2023-03-24T03:59:28.729Z,99131.13
2023-03-24T04:01:58.511Z,99131.94
2023-03-24T04:04:59.781Z,99137.03
2023-03-24T04:07:48.873Z,99126.63
2023-03-24T04:11:01.992Z,99134.31
2023-03-24T04:13:38.914Z,99129.28
2023-03-24T04:16:45.487Z,99132.75
2023-03-24T04:19:34.841Z,99133.13
2023-03-24T04:22:14.244Z,99133.13
2023-03-24T04:24:49.824Z,99138.44
2023-03-24T04:27:27.460Z,99136.69
2023-03-24T04:30:06.225Z,99142.78
2023-03-24T04:32:43.192Z,99159.44
2023-03-24T04:35:14.748Z,99161.91
2023-03-24T04:38:04.845Z,99160.69
2023-03-24T04:40:41.876Z,99160.09
2023-03-24T04:43:13.867Z,99183.97
2023-03-24T04:45:42.169Z,99182.75
2023-03-24T04:48:30.385Z,99201.25
2023-03-24T04:51:12.274Z,99207.09
2023-03-24T04:53:53.554Z,99186.22
2023-03-24T04:56:40.345Z,99179.44
2023-03-24T04:59:13.034Z,99225.91
2023-03-24T05:01:41.032Z,99217.00
2023-03-24T05:04:27.143Z,99233.34
2023-03-24T05:06:56.149Z,99220.53
2023-03-24T05:09:27.184Z,99236.78
2023-03-24T05:11:55.028Z,99245.63
2023-03-24T05:14:24.763Z,99244.78
2023-03-24T05:16:53.095Z,99248.44
2023-03-24T05:19:22.395Z,99245.16
2023-03-24T05:21:53.959Z,99270.34
2023-03-24T05:24:24.318Z,99279.47
2023-03-24T05:26:52.110Z,99283.28
2023-03-24T05:29:21.411Z,99304.47
2023-03-24T05:31:49.546Z,99242.81
2023-03-24T05:34:19.360Z,99319.06
2023-03-24T05:37:04.684Z,99320.25
2023-03-24T05:39:32.485Z,99330.03
2023-03-24T05:42:08.047Z,99320.44
2023-03-24T05:44:36.093Z,99331.72
2023-03-24T05:47:12.716Z,99328.75
2023-03-24T05:49:40.808Z,99331.72
2023-03-24T05:52:10.581Z,99335.53
2023-03-24T05:54:40.518Z,99337.72
2023-03-24T05:57:17.591Z,99350.63
2023-03-24T06:00:16.834Z,99332.63
2023-03-24T06:03:06.268Z,99332.16
2023-03-24T06:05:45.828Z,99350.66
2023-03-24T06:08:17.161Z,99342.28
2023-03-24T06:10:45.040Z,99395.00
2023-03-24T06:13:12.942Z,99383.09
2023-03-24T06:15:46.908Z,99385.75
2023-03-24T06:18:32.017Z,99385.41
2023-03-24T06:21:04.154Z,99391.03
2023-03-24T06:23:35.651Z,99380.78
2023-03-24T06:26:12.591Z,99386.25
2023-03-24T06:28:59.618Z,99394.00
2023-03-24T06:31:32.826Z,99401.28
2023-03-24T06:34:00.750Z,99399.81
2023-03-24T06:36:28.647Z,99419.16
2023-03-24T06:38:58.029Z,99429.75
2023-03-24T06:41:27.424Z,99421.81
2023-03-24T06:43:59.572Z,99428.44
2023-03-24T06:46:27.598Z,99419.69
2023-03-24T06:48:56.403Z,99446.16
2023-03-24T06:51:24.147Z,99478.72
2023-03-24T06:53:51.969Z,99488.00
2023-03-24T06:56:21.633Z,99475.91
2023-03-24T06:58:54.941Z,99488.81
2023-03-24T07:01:35.040Z,99486.34
2023-03-24T07:04:25.694Z,99497.94
2023-03-24T07:07:12.544Z,99489.19
2023-03-24T07:09:46.177Z,99475.13
2023-03-24T07:12:15.782Z,99475.44
2023-03-24T07:14:43.882Z,99476.78
2023-03-24T07:17:12.913Z,99486.34
2023-03-24T07:19:54.304Z,99489.31
2023-03-24T07:22:48.305Z,99504.84
2023-03-24T07:25:34.887Z,99510.50
2023-03-24T07:28:13.769Z,99500.41
2023-03-24T07:30:41.538Z,99487.97
2023-03-24T07:33:12.015Z,99499.25
2023-03-24T07:35:41.104Z,99507.16
2023-03-24T07:38:09.029Z,99511.50
2023-03-24T07:40:36.968Z,99504.56
2023-03-24T07:43:06.587Z,99509.16
2023-03-24T07:45:54.395Z,99514.63
2023-03-24T07:48:22.145Z,99510.00
2023-03-24T07:50:53.420Z,99510.66
2023-03-24T07:53:47.712Z,99524.56
2023-03-24T07:56:22.956Z,99527.38
2023-03-24T07:58:56.941Z,99523.06
2023-03-24T08:01:32.875Z,99523.72
2023-03-24T08:04:04.680Z,99520.09
2023-03-24T08:06:52.816Z,99526.53
2023-03-24T08:09:21.850Z,99544.06
2023-03-24T08:11:49.629Z,99537.94
2023-03-24T08:14:17.508Z,99541.41
2023-03-24T08:16:46.884Z,99535.63
2023-03-24T08:19:14.840Z,99526.38
2023-03-24T08:21:42.624Z,99524.72
2023-03-24T08:24:10.377Z,99540.59
2023-03-24T08:26:38.093Z,99534.13
2023-03-24T08:29:06.015Z,99532.00
2023-03-24T08:31:34.255Z,99527.34
2023-03-24T08:34:04.722Z,99530.66
2023-03-24T08:36:32.536Z,99529.19
2023-03-24T08:39:01.380Z,99525.53
2023-03-24T08:41:34.733Z,99536.28
2023-03-24T08:44:05.622Z,99527.84
2023-03-24T08:46:34.905Z,99535.47
2023-03-24T08:49:05.477Z,99525.03
2023-03-24T08:51:33.776Z,99525.00
2023-03-24T08:54:03.616Z,99542.88
2023-03-24T08:56:31.560Z,99510.16
2023-03-24T08:58:59.334Z,99547.53
2023-03-24T09:01:27.316Z,99546.19
2023-03-24T09:03:55.119Z,99549.84
2023-03-24T09:06:24.194Z,99557.78
2023-03-24T09:08:51.898Z,99559.44
2023-03-24T09:11:21.373Z,99559.91
2023-03-24T09:13:49.966Z,99561.09
2023-03-24T09:16:18.426Z,99566.38
2023-03-24T09:18:47.475Z,99567.72
2023-03-24T09:21:15.361Z,99569.03
2023-03-24T09:23:44.471Z,99569.38
2023-03-24T09:26:12.305Z,99572.69
2023-03-24T09:28:40.150Z,99570.03
2023-03-24T09:31:08.028Z,99590.22
2023-03-24T09:33:35.915Z,99582.13
2023-03-24T09:36:04.350Z,99576.81
2023-03-24T09:38:33.592Z,99577.47
2023-03-24T09:41:04.321Z,99582.28
2023-03-24T09:43:38.752Z,99579.97
2023-03-24T09:46:13.306Z,99577.47
2023-03-24T09:48:45.378Z,99543.06
2023-03-24T09:51:21.410Z,99587.56
2023-03-24T09:53:56.491Z,99574.50
2023-03-24T09:56:29.620Z,99590.03
2023-03-24T09:59:04.878Z,99597.16
2023-03-24T10:01:34.391Z,99575.00
2023-03-24T10:04:02.764Z,99590.88
2023-03-24T10:06:34.551Z,99594.47
2023-03-24T10:09:17.742Z,99596.78
2023-03-24T10:11:55.903Z,99598.03
2023-03-24T10:14:40.392Z,99575.16
2023-03-24T10:17:17.145Z,99595.97
2023-03-24T10:19:59.688Z,99611.28
2023-03-24T10:22:37.232Z,99632.44
2023-03-24T10:25:14.700Z,99625.59
2023-03-24T10:27:49.908Z,99614.31
2023-03-24T10:30:20.231Z,99620.44
2023-03-24T10:32:48.047Z,99613.59
2023-03-24T10:35:19.211Z,99612.53
2023-03-24T10:37:47.411Z,99605.47
2023-03-24T10:40:18.242Z,99620.09
2023-03-24T10:42:49.880Z,99631.75
2023-03-24T10:45:36.573Z,99624.09
2023-03-24T10:48:05.403Z,99627.03
2023-03-24T10:50:35.971Z,99613.66
2023-03-24T10:53:09.999Z,99623.28
2023-03-24T10:55:40.023Z,99626.09
2023-03-24T10:58:19.640Z,99633.53
2023-03-24T11:00:48.684Z,99617.56
2023-03-24T11:03:19.078Z,99630.78
2023-03-24T11:05:47.216Z,99639.53
2023-03-24T11:08:27.065Z,99641.44
2023-03-24T11:10:55.107Z,99636.56
2023-03-24T11:13:31.709Z,99640.13
2023-03-24T11:16:11.153Z,99637.94
2023-03-24T11:18:39.296Z,99632.50
2023-03-24T11:21:08.232Z,99633.28
2023-03-24T11:23:40.261Z,99645.22
2023-03-24T11:26:14.288Z,99639.06
2023-03-24T11:28:47.329Z,99639.22
2023-03-24T11:31:24.652Z,99636.66
2023-03-24T11:33:58.835Z,99623.47
2023-03-24T11:36:49.770Z,99631.91
2023-03-24T11:39:21.328Z,99610.88
2023-03-24T11:41:59.939Z,99640.34
2023-03-24T11:44:33.571Z,99616.19
2023-03-24T11:47:07.048Z,99637.06
2023-03-24T11:49:40.852Z,99637.16
2023-03-24T11:52:20.041Z,99634.03
2023-03-24T11:54:48.033Z,99642.75
2023-03-24T11:57:21.803Z,99654.22
2023-03-24T11:59:58.252Z,99646.81
2023-03-24T12:02:38.029Z,99629.88
2023-03-24T12:05:20.560Z,99621.81
2023-03-24T12:08:30.523Z,99617.22
2023-03-24T12:11:09.353Z,99618.75
2023-03-24T12:13:39.863Z,99613.00
2023-03-24T12:16:25.330Z,99607.22
2023-03-24T12:19:24.906Z,99615.41
2023-03-24T12:22:03.804Z,99616.13
2023-03-24T12:24:48.449Z,99622.91
2023-03-24T12:27:25.639Z,99607.44
2023-03-24T12:30:02.175Z,99619.78
2023-03-24T12:32:41.736Z,99606.63
2023-03-24T12:35:33.915Z,99610.38
2023-03-24T12:38:13.076Z,99616.22
2023-03-24T12:41:03.186Z,99608.81
2023-03-24T12:43:39.956Z,99614.06
2023-03-24T12:46:19.501Z,99596.50
2023-03-24T12:49:15.190Z,99600.88
2023-03-24T12:51:54.364Z,99598.97
2023-03-24T12:54:35.476Z,99642.22
2023-03-24T12:57:07.692Z,99612.91
2023-03-24T12:59:40.539Z,99598.31
2023-03-24T13:02:20.773Z,99613.44
2023-03-24T13:04:51.868Z,99603.41
2023-03-24T13:07:25.775Z,99579.28
2023-03-24T13:09:59.479Z,99593.69
2023-03-24T13:12:32.306Z,99591.28
2023-03-24T13:15:06.177Z,99589.44
2023-03-24T13:17:40.114Z,99588.38
2023-03-24T13:20:27.132Z,99582.75
2023-03-24T13:22:56.858Z,99596.03
2023-03-24T13:25:34.268Z,99578.47
2023-03-24T13:28:08.857Z,99599.50
2023-03-24T13:30:39.429Z,99583.41
2023-03-24T13:33:13.607Z,99587.22
2023-03-24T13:35:57.831Z,99585.16
2023-03-24T13:38:34.980Z,99586.50
2023-03-24T13:41:05.914Z,99579.56
2023-03-24T13:43:34.925Z,99580.34
2023-03-24T13:46:04.179Z,99567.78
2023-03-24T13:48:37.641Z,99575.25
2023-03-24T13:51:17.022Z,99567.31
2023-03-24T13:53:47.243Z,99573.50
2023-03-24T13:56:25.305Z,99568.28
2023-03-24T13:59:10.449Z,99583.72
2023-03-24T14:01:40.896Z,99580.47
2023-03-24T14:04:28.224Z,99573.97
2023-03-24T14:06:58.847Z,99560.56
2023-03-24T14:09:28.488Z,99579.56
2023-03-24T14:12:20.417Z,99567.69
2023-03-24T14:15:15.491Z,99574.66
2023-03-24T14:17:45.951Z,99597.72
2023-03-24T14:20:25.724Z,99602.28
2023-03-24T14:22:55.593Z,99604.19
2023-03-24T14:25:27.140Z,99579.72
2023-03-24T14:28:07.221Z,99576.25
2023-03-24T14:30:38.083Z,99578.34
2023-03-24T14:33:06.659Z,99598.03
2023-03-24T14:35:41.930Z,99590.06
2023-03-24T14:38:26.073Z,99581.41
2023-03-24T14:40:58.823Z,99589.28
2023-03-24T14:43:28.473Z,99578.19
2023-03-24T14:46:01.919Z,99574.81
2023-03-24T14:48:33.953Z,99558.81
2023-03-24T14:51:07.023Z,99569.88
2023-03-24T14:53:38.789Z,99583.72
2023-03-24T14:56:10.364Z,99559.41
2023-03-24T14:58:43.913Z,99561.03
2023-03-24T15:01:12.361Z,99570.66
2023-03-24T15:03:50.073Z,99567.06
2023-03-24T15:06:19.987Z,99579.91
2023-03-24T15:08:53.261Z,99567.03
2023-03-24T15:11:25.912Z,99548.25
2023-03-24T15:13:54.497Z,99563.31
2023-03-24T15:16:25.346Z,99557.41
2023-03-24T15:21:29.915Z,99570.88
2023-03-24T15:24:00.978Z,99559.03
2023-03-24T15:26:30.840Z,99546.06
2023-03-24T15:29:00.622Z,99567.44
2023-03-24T15:31:31.142Z,99562.19
2023-03-24T15:34:07.523Z,99560.00
2023-03-24T15:36:40.507Z,99557.38
2023-03-24T15:39:28.618Z,99544.03
2023-03-24T15:41:56.799Z,99541.38
2023-03-24T15:44:27.761Z,99549.44
2023-03-24T15:46:57.582Z,99560.63
2023-03-24T15:49:27.722Z,99529.47
2023-03-24T15:51:59.948Z,99538.97
2023-03-24T15:54:32.420Z,99530.09
2023-03-24T15:57:12.750Z,99526.16
2023-03-24T15:59:46.802Z,99524.25
2023-03-24T16:02:24.369Z,99511.84
2023-03-24T16:05:04.026Z,99517.34
2023-03-24T16:07:37.660Z,99513.03
2023-03-24T16:10:08.752Z,99531.34
2023-03-24T16:12:37.863Z,99586.53
2023-03-24T16:15:06.870Z,99585.81
2023-03-24T16:17:34.708Z,99606.81
2023-03-24T16:20:02.492Z,99589.22
2023-03-24T16:22:30.323Z,99575.16
2023-03-24T16:24:58.327Z,99581.94
2023-03-24T16:27:27.466Z,99594.50
2023-03-24T16:29:55.823Z,99594.53
2023-03-24T16:32:23.694Z,99591.22
2023-03-24T16:34:51.452Z,99583.41
2023-03-24T16:37:19.376Z,99591.53
2023-03-24T16:39:47.076Z,99601.94
2023-03-24T16:42:14.956Z,99623.25
2023-03-24T16:44:44.243Z,99633.16
2023-03-24T16:47:12.044Z,99615.59
2023-03-24T16:49:39.744Z,99618.75
2023-03-24T16:52:12.839Z,99612.63
2023-03-24T16:54:40.774Z,99617.25
2023-03-24T16:57:08.664Z,99610.00
2023-03-24T16:59:36.455Z,99610.00
2023-03-24T17:02:06.110Z,99618.13
2023-03-24T17:04:35.371Z,99608.53
2023-03-24T17:07:03.277Z,99611.84
2023-03-24T17:09:32.233Z,99586.69
2023-03-24T17:12:02.147Z,99623.59
2023-03-24T17:14:31.064Z,99620.13
2023-03-24T17:16:59.684Z,99621.94
2023-03-24T17:19:28.794Z,99608.72
2023-03-24T17:22:00.913Z,99608.53
2023-03-24T17:24:29.271Z,99614.97
2023-03-24T17:26:57.271Z,99599.41
2023-03-24T17:29:25.087Z,99578.22
2023-03-24T17:31:54.606Z,99608.81
2023-03-24T17:34:22.634Z,99608.19
2023-03-24T17:36:52.040Z,99601.41
2023-03-24T17:39:21.517Z,99606.69
2023-03-24T17:41:49.793Z,99612.13
2023-03-24T17:44:17.571Z,99604.34
2023-03-24T17:46:45.527Z,99608.34
2023-03-24T17:49:13.409Z,99597.41
2023-03-24T17:51:41.294Z,99598.38
2023-03-24T17:54:11.685Z,99595.44
2023-03-24T17:56:39.459Z,99598.03
2023-03-24T17:59:07.187Z,99601.19
2023-03-24T18:01:39.294Z,99590.09
2023-03-24T18:04:07.485Z,99599.38
2023-03-24T18:06:35.371Z,99604.97
2023-03-24T18:09:03.321Z,99603.00
2023-03-24T18:11:32.429Z,99589.22
2023-03-24T18:14:00.203Z,99608.91
2023-03-24T18:16:30.217Z,99593.16
2023-03-24T18:19:12.302Z,99610.56
2023-03-24T18:21:40.302Z,99522.75
2023-03-24T18:24:08.995Z,99614.50
2023-03-24T18:26:38.146Z,99611.19
2023-03-24T18:29:06.849Z,99601.06
2023-03-24T18:31:34.845Z,99609.31
2023-03-24T18:34:03.937Z,99605.88
2023-03-24T18:36:31.667Z,99614.66
2023-03-24T18:39:01.250Z,99611.19
2023-03-24T18:41:30.473Z,99618.50
2023-03-24T18:44:00.827Z,99615.84
2023-03-24T18:46:31.838Z,99610.88
2023-03-24T18:48:59.772Z,99604.00
2023-03-24T18:51:28.224Z,99597.56
2023-03-24T18:53:56.584Z,99590.94
2023-03-24T18:56:25.499Z,99604.00
2023-03-24T18:58:53.475Z,99600.03
2023-03-24T19:01:23.454Z,99595.75
2023-03-24T19:03:52.716Z,99594.09
2023-03-24T19:13:36.146Z,99587.13
2023-03-24T19:16:04.790Z,99591.44
2023-03-24T19:18:33.934Z,99587.19
2023-03-24T19:21:02.064Z,99585.53
2023-03-24T19:23:30.855Z,99582.22
2023-03-24T19:25:58.743Z,99584.19
2023-03-24T19:28:46.445Z,99561.34
2023-03-24T19:31:18.805Z,99589.97
2023-03-24T19:33:48.234Z,99581.91
2023-03-24T19:36:16.419Z,99591.28
2023-03-24T19:38:44.209Z,99592.31
2023-03-24T19:41:14.549Z,99595.78
2023-03-24T19:43:42.524Z,99582.84
2023-03-24T19:46:10.488Z,99597.41
2023-03-24T19:48:38.505Z,99600.88
2023-03-24T19:51:07.704Z,99602.22
2023-03-24T19:53:35.502Z,99600.41
2023-03-24T19:56:04.111Z,99598.44
2023-03-24T19:58:31.979Z,99602.38
2023-03-24T20:00:59.779Z,99600.88
2023-03-24T20:03:29.195Z,99598.25
2023-03-24T20:05:57.045Z,99590.81
2023-03-24T20:08:26.598Z,99587.50
2023-03-24T20:10:54.365Z,99594.13
2023-03-24T20:13:24.016Z,99588.50
2023-03-24T20:15:51.948Z,99591.97
2023-03-24T20:18:19.903Z,99602.69
2023-03-24T20:20:47.649Z,99592.63
2023-03-24T20:23:15.460Z,99586.50
2023-03-24T20:25:44.770Z,99585.69
2023-03-24T20:28:12.985Z,99588.50
2023-03-24T20:30:42.740Z,99586.84
2023-03-24T20:33:10.617Z,99586.50
2023-03-24T20:35:39.771Z,99593.31
2023-03-24T20:38:07.543Z,99597.75
2023-03-24T20:40:35.400Z,99600.03
2023-03-24T20:43:04.439Z,99605.34
2023-03-24T20:45:32.361Z,99604.00
2023-03-24T20:48:00.273Z,99605.66
2023-03-24T20:50:28.372Z,99598.72
2023-03-24T20:52:56.065Z,99602.03
2023-03-24T20:55:24.071Z,99564.94
2023-03-24T20:57:51.848Z,99601.66
2023-03-24T21:00:21.442Z,99595.75
2023-03-24T21:02:49.216Z,99595.06
2023-03-24T21:05:17.121Z,99592.44
2023-03-24T21:07:45.556Z,99592.75
2023-03-24T21:10:14.406Z,99598.03
2023-03-24T21:12:53.485Z,99591.72
2023-03-24T21:15:27.464Z,99544.06
2023-03-24T21:17:58.603Z,99591.41
2023-03-24T21:20:28.383Z,99590.41
2023-03-24T21:22:56.304Z,99593.38
2023-03-24T21:25:26.846Z,99585.44
2023-03-24T21:27:57.346Z,99582.25
2023-03-24T21:30:27.584Z,99564.41
2023-03-24T21:32:57.528Z,99577.84
2023-03-24T21:35:25.917Z,99569.56
2023-03-24T21:37:53.924Z,99573.56
2023-03-24T21:40:23.871Z,99567.91
2023-03-24T21:42:53.564Z,99582.13
2023-03-24T21:45:24.179Z,99583.13
2023-03-24T21:47:54.969Z,99573.56
2023-03-24T21:50:23.990Z,99587.09
2023-03-24T21:52:52.886Z,99584.75
2023-03-24T21:55:22.358Z,99589.75
2023-03-24T21:57:51.724Z,99590.25
2023-03-24T22:00:22.714Z,99592.91
2023-03-24T22:02:58.211Z,99597.50
2023-03-24T22:05:27.837Z,99538.09
2023-03-24T22:07:55.927Z,99590.56
2023-03-24T22:10:23.848Z,99600.66
2023-03-24T22:12:52.609Z,99601.66
2023-03-24T22:15:20.755Z,99593.38
2023-03-24T22:17:48.592Z,99600.00
2023-03-24T22:20:18.378Z,99603.47
2023-03-24T22:22:46.538Z,99607.78
2023-03-24T22:25:16.317Z,99603.63
2023-03-24T22:27:44.091Z,99594.03
2023-03-24T22:30:13.907Z,99601.66
2023-03-24T22:32:42.168Z,99578.84
2023-03-24T22:35:10.985Z,99597.72
2023-03-24T22:37:40.322Z,99597.50
2023-03-24T22:40:09.532Z,99595.69
2023-03-24T22:42:37.287Z,99589.72
2023-03-24T22:45:05.954Z,99611.56
2023-03-24T22:47:33.749Z,99615.66
2023-03-24T22:50:01.540Z,99616.97
2023-03-24T22:52:29.287Z,99626.34
2023-03-24T22:54:58.380Z,99628.63
2023-03-24T22:57:26.109Z,99632.72
2023-03-24T22:59:53.843Z,99639.59
2023-03-24T23:02:24.474Z,99636.41
2023-03-24T23:04:52.690Z,99623.28
2023-03-24T23:07:23.243Z,99619.81
2023-03-24T23:09:53.287Z,99627.00
2023-03-24T23:12:24.929Z,99624.16
2023-03-24T23:14:54.286Z,99635.09
2023-03-24T23:17:24.107Z,99616.56
2023-03-24T23:19:52.559Z,99631.63
2023-03-24T23:22:21.157Z,99627.31
2023-03-24T23:24:49.099Z,99629.94
2023-03-24T23:27:17.395Z,99633.94
2023-03-24T23:29:46.608Z,99644.66
2023-03-24T23:32:14.556Z,99641.03
2023-03-24T23:34:44.088Z,99638.84
2023-03-24T23:37:11.853Z,99622.00
2023-03-24T23:39:39.580Z,99636.66
2023-03-24T23:42:07.271Z,99638.31
2023-03-24T23:44:35.027Z,99638.47
2023-03-24T23:47:04.184Z,99636.31
2023-03-24T23:49:31.919Z,99643.09
2023-03-24T23:51:59.719Z,99644.09
2023-03-24T23:54:27.487Z,99647.41
2023-03-24T23:56:55.206Z,99612.00
2023-03-24T23:59:22.997Z,99650.53
